sensor_id;sensor_type;location;lat;lon;timestamp;P1;durP1;ratioP1;P2;durP2;ratioP2
79616;SDS011;69097;52.132;5.422;2024-02-28T00:00:13;35.35;;;13.13;;
79616;SDS011;69097;52.132;5.422;2024-02-28T00:02:40;32.58;;;11.48;;
79616;SDS011;69097;52.132;5.422;2024-02-28T00:05:06;30.02;;;12.23;;
79616;SDS011;69097;52.132;5.422;2024-02-28T00:07:33;27.90;;;11.95;;
79616;SDS011;69097;52.132;5.422;2024-02-28T00:10:00;27.15;;;10.30;;
79616;SDS011;69097;52.132;5.422;2024-02-28T00:12:27;32.88;;;12.05;;
79616;SDS011;69097;52.132;5.422;2024-02-28T00:14:53;29.52;;;12.57;;
79616;SDS011;69097;52.132;5.422;2024-02-28T00:17:20;28.33;;;10.82;;
79616;SDS011;69097;52.132;5.422;2024-02-28T00:19:46;29.63;;;12.23;;
79616;SDS011;69097;52.132;5.422;2024-02-28T00:22:13;29.00;;;11.40;;
79616;SDS011;69097;52.132;5.422;2024-02-28T00:24:40;31.83;;;11.68;;
79616;SDS011;69097;52.132;5.422;2024-02-28T00:27:06;30.02;;;10.93;;
79616;SDS011;69097;52.132;5.422;2024-02-28T00:29:32;33.35;;;12.60;;
79616;SDS011;69097;52.132;5.422;2024-02-28T00:31:59;30.60;;;11.82;;
79616;SDS011;69097;52.132;5.422;2024-02-28T00:34:25;32.75;;;12.25;;
79616;SDS011;69097;52.132;5.422;2024-02-28T00:36:52;32.38;;;11.63;;
79616;SDS011;69097;52.132;5.422;2024-02-28T00:39:22;34.17;;;12.40;;
79616;SDS011;69097;52.132;5.422;2024-02-28T00:41:48;31.00;;;11.88;;
79616;SDS011;69097;52.132;5.422;2024-02-28T00:44:15;31.88;;;12.73;;
79616;SDS011;69097;52.132;5.422;2024-02-28T00:46:41;28.75;;;11.77;;
79616;SDS011;69097;52.132;5.422;2024-02-28T00:49:08;31.95;;;12.52;;
79616;SDS011;69097;52.132;5.422;2024-02-28T00:51:34;29.80;;;11.88;;
79616;SDS011;69097;52.132;5.422;2024-02-28T00:54:03;28.60;;;11.18;;
79616;SDS011;69097;52.132;5.422;2024-02-28T00:56:30;34.03;;;11.00;;
79616;SDS011;69097;52.132;5.422;2024-02-28T00:58:57;27.63;;;11.85;;
79616;SDS011;69097;52.132;5.422;2024-02-28T01:01:23;37.00;;;12.63;;
79616;SDS011;69097;52.132;5.422;2024-02-28T01:03:49;27.77;;;12.50;;
79616;SDS011;69097;52.132;5.422;2024-02-28T01:06:16;34.50;;;12.25;;
79616;SDS011;69097;52.132;5.422;2024-02-28T01:08:43;30.40;;;12.07;;
79616;SDS011;69097;52.132;5.422;2024-02-28T01:11:09;33.20;;;12.43;;
79616;SDS011;69097;52.132;5.422;2024-02-28T01:13:36;33.50;;;12.02;;
79616;SDS011;69097;52.132;5.422;2024-02-28T01:16:03;31.60;;;12.05;;
79616;SDS011;69097;52.132;5.422;2024-02-28T01:18:29;30.83;;;12.18;;
79616;SDS011;69097;52.132;5.422;2024-02-28T01:20:58;28.92;;;11.02;;
79616;SDS011;69097;52.132;5.422;2024-02-28T01:23:24;33.00;;;12.35;;
79616;SDS011;69097;52.132;5.422;2024-02-28T01:25:51;30.50;;;11.40;;
79616;SDS011;69097;52.132;5.422;2024-02-28T01:28:17;29.20;;;11.82;;
79616;SDS011;69097;52.132;5.422;2024-02-28T01:30:44;30.20;;;12.85;;
79616;SDS011;69097;52.132;5.422;2024-02-28T01:33:10;29.67;;;12.48;;
79616;SDS011;69097;52.132;5.422;2024-02-28T01:35:39;32.35;;;11.65;;
79616;SDS011;69097;52.132;5.422;2024-02-28T01:38:05;28.38;;;11.25;;
79616;SDS011;69097;52.132;5.422;2024-02-28T01:40:32;31.08;;;11.05;;
79616;SDS011;69097;52.132;5.422;2024-02-28T01:43:07;28.95;;;11.32;;
79616;SDS011;69097;52.132;5.422;2024-02-28T01:45:34;31.20;;;11.57;;
79616;SDS011;69097;52.132;5.422;2024-02-28T01:48:02;31.60;;;12.30;;
79616;SDS011;69097;52.132;5.422;2024-02-28T01:50:29;34.00;;;11.30;;
79616;SDS011;69097;52.132;5.422;2024-02-28T01:52:55;36.65;;;11.65;;
79616;SDS011;69097;52.132;5.422;2024-02-28T01:55:22;33.45;;;10.90;;
79616;SDS011;69097;52.132;5.422;2024-02-28T01:57:48;35.08;;;11.02;;
79616;SDS011;69097;52.132;5.422;2024-02-28T02:00:15;30.08;;;10.77;;
79616;SDS011;69097;52.132;5.422;2024-02-28T02:02:43;36.03;;;10.55;;
79616;SDS011;69097;52.132;5.422;2024-02-28T02:05:10;36.70;;;10.38;;
79616;SDS011;69097;52.132;5.422;2024-02-28T02:07:36;25.60;;;9.90;;
79616;SDS011;69097;52.132;5.422;2024-02-28T02:10:04;39.92;;;10.13;;
79616;SDS011;69097;52.132;5.422;2024-02-28T02:12:34;37.22;;;10.45;;
79616;SDS011;69097;52.132;5.422;2024-02-28T02:15:01;28.70;;;8.95;;
79616;SDS011;69097;52.132;5.422;2024-02-28T02:17:27;35.75;;;9.57;;
79616;SDS011;69097;52.132;5.422;2024-02-28T02:19:54;27.35;;;9.63;;
79616;SDS011;69097;52.132;5.422;2024-02-28T02:22:20;21.05;;;9.20;;
79616;SDS011;69097;52.132;5.422;2024-02-28T02:24:47;29.70;;;9.25;;
79616;SDS011;69097;52.132;5.422;2024-02-28T02:27:14;28.00;;;11.15;;
79616;SDS011;69097;52.132;5.422;2024-02-28T02:29:40;21.77;;;9.25;;
79616;SDS011;69097;52.132;5.422;2024-02-28T02:32:07;19.85;;;8.45;;
79616;SDS011;69097;52.132;5.422;2024-02-28T02:34:33;24.52;;;9.30;;
79616;SDS011;69097;52.132;5.422;2024-02-28T02:37:00;20.55;;;8.40;;
79616;SDS011;69097;52.132;5.422;2024-02-28T02:39:26;22.13;;;9.02;;
79616;SDS011;69097;52.132;5.422;2024-02-28T02:41:53;21.75;;;8.95;;
79616;SDS011;69097;52.132;5.422;2024-02-28T02:44:19;25.92;;;8.95;;
79616;SDS011;69097;52.132;5.422;2024-02-28T02:46:46;22.02;;;9.00;;
79616;SDS011;69097;52.132;5.422;2024-02-28T02:49:12;21.90;;;9.70;;
79616;SDS011;69097;52.132;5.422;2024-02-28T02:51:39;23.27;;;9.90;;
79616;SDS011;69097;52.132;5.422;2024-02-28T02:54:05;21.17;;;9.20;;
79616;SDS011;69097;52.132;5.422;2024-02-28T02:56:32;20.58;;;9.52;;
79616;SDS011;69097;52.132;5.422;2024-02-28T02:58:58;23.80;;;9.27;;
79616;SDS011;69097;52.132;5.422;2024-02-28T03:01:25;22.02;;;9.27;;
79616;SDS011;69097;52.132;5.422;2024-02-28T03:03:51;22.58;;;9.73;;
79616;SDS011;69097;52.132;5.422;2024-02-28T03:06:19;21.45;;;9.43;;
79616;SDS011;69097;52.132;5.422;2024-02-28T03:08:45;22.50;;;9.18;;
79616;SDS011;69097;52.132;5.422;2024-02-28T03:11:12;21.33;;;9.68;;
79616;SDS011;69097;52.132;5.422;2024-02-28T03:13:38;27.65;;;10.05;;
79616;SDS011;69097;52.132;5.422;2024-02-28T03:16:05;23.52;;;9.95;;
79616;SDS011;69097;52.132;5.422;2024-02-28T03:18:32;21.52;;;9.38;;
79616;SDS011;69097;52.132;5.422;2024-02-28T03:20:59;22.58;;;9.68;;
79616;SDS011;69097;52.132;5.422;2024-02-28T03:23:25;26.15;;;9.48;;
79616;SDS011;69097;52.132;5.422;2024-02-28T03:25:52;25.27;;;10.45;;
79616;SDS011;69097;52.132;5.422;2024-02-28T03:28:18;22.05;;;9.23;;
79616;SDS011;69097;52.132;5.422;2024-02-28T03:30:45;22.27;;;9.70;;
79616;SDS011;69097;52.132;5.422;2024-02-28T03:33:11;24.85;;;10.10;;
79616;SDS011;69097;52.132;5.422;2024-02-28T03:35:38;21.92;;;9.65;;
79616;SDS011;69097;52.132;5.422;2024-02-28T03:38:04;24.95;;;9.82;;
79616;SDS011;69097;52.132;5.422;2024-02-28T03:40:31;22.60;;;10.27;;
79616;SDS011;69097;52.132;5.422;2024-02-28T03:42:57;23.13;;;10.02;;
79616;SDS011;69097;52.132;5.422;2024-02-28T03:45:27;25.45;;;10.45;;
79616;SDS011;69097;52.132;5.422;2024-02-28T03:47:54;21.98;;;9.32;;
79616;SDS011;69097;52.132;5.422;2024-02-28T03:50:21;22.38;;;9.40;;
79616;SDS011;69097;52.132;5.422;2024-02-28T03:52:47;21.65;;;10.10;;
79616;SDS011;69097;52.132;5.422;2024-02-28T03:55:15;21.58;;;9.63;;
79616;SDS011;69097;52.132;5.422;2024-02-28T04:00:10;20.90;;;8.20;;
79616;SDS011;69097;52.132;5.422;2024-02-28T04:02:38;18.25;;;8.23;;
79616;SDS011;69097;52.132;5.422;2024-02-28T04:05:04;21.73;;;9.13;;
79616;SDS011;69097;52.132;5.422;2024-02-28T04:07:31;19.25;;;8.68;;
79616;SDS011;69097;52.132;5.422;2024-02-28T04:09:57;22.15;;;9.32;;
79616;SDS011;69097;52.132;5.422;2024-02-28T04:12:24;23.10;;;9.43;;
79616;SDS011;69097;52.132;5.422;2024-02-28T04:14:50;19.08;;;9.02;;
79616;SDS011;69097;52.132;5.422;2024-02-28T04:17:17;19.98;;;8.63;;
79616;SDS011;69097;52.132;5.422;2024-02-28T04:19:44;19.92;;;8.95;;
79616;SDS011;69097;52.132;5.422;2024-02-28T04:22:10;19.38;;;8.73;;
79616;SDS011;69097;52.132;5.422;2024-02-28T04:24:36;17.92;;;8.82;;
79616;SDS011;69097;52.132;5.422;2024-02-28T04:27:03;20.00;;;9.73;;
79616;SDS011;69097;52.132;5.422;2024-02-28T04:29:31;20.63;;;8.45;;
79616;SDS011;69097;52.132;5.422;2024-02-28T04:31:58;18.10;;;8.93;;
79616;SDS011;69097;52.132;5.422;2024-02-28T04:34:24;18.15;;;9.23;;
79616;SDS011;69097;52.132;5.422;2024-02-28T04:36:51;19.70;;;8.82;;
79616;SDS011;69097;52.132;5.422;2024-02-28T04:39:17;18.73;;;8.52;;
79616;SDS011;69097;52.132;5.422;2024-02-28T04:41:44;19.05;;;8.65;;
79616;SDS011;69097;52.132;5.422;2024-02-28T04:44:10;19.45;;;8.80;;
79616;SDS011;69097;52.132;5.422;2024-02-28T04:46:37;21.00;;;9.38;;
79616;SDS011;69097;52.132;5.422;2024-02-28T04:49:03;19.98;;;9.70;;
79616;SDS011;69097;52.132;5.422;2024-02-28T04:51:30;19.70;;;9.57;;
79616;SDS011;69097;52.132;5.422;2024-02-28T04:53:56;20.58;;;9.30;;
79616;SDS011;69097;52.132;5.422;2024-02-28T04:56:23;19.90;;;9.18;;
79616;SDS011;69097;52.132;5.422;2024-02-28T04:58:50;17.52;;;8.02;;
79616;SDS011;69097;52.132;5.422;2024-02-28T05:01:17;20.20;;;9.05;;
79616;SDS011;69097;52.132;5.422;2024-02-28T05:03:47;19.23;;;8.85;;
79616;SDS011;69097;52.132;5.422;2024-02-28T05:06:13;18.35;;;7.95;;
79616;SDS011;69097;52.132;5.422;2024-02-28T05:08:40;22.63;;;9.05;;
79616;SDS011;69097;52.132;5.422;2024-02-28T05:11:06;24.45;;;9.63;;
79616;SDS011;69097;52.132;5.422;2024-02-28T05:13:34;19.10;;;8.85;;
79616;SDS011;69097;52.132;5.422;2024-02-28T05:16:01;17.67;;;8.50;;
79616;SDS011;69097;52.132;5.422;2024-02-28T05:18:27;19.38;;;8.50;;
79616;SDS011;69097;52.132;5.422;2024-02-28T05:20:54;19.67;;;8.77;;
79616;SDS011;69097;52.132;5.422;2024-02-28T05:23:21;19.83;;;9.15;;
79616;SDS011;69097;52.132;5.422;2024-02-28T05:25:47;18.63;;;8.77;;
79616;SDS011;69097;52.132;5.422;2024-02-28T05:28:14;18.02;;;9.43;;
79616;SDS011;69097;52.132;5.422;2024-02-28T05:30:40;18.27;;;8.80;;
79616;SDS011;69097;52.132;5.422;2024-02-28T05:33:12;17.00;;;8.32;;
79616;SDS011;69097;52.132;5.422;2024-02-28T05:35:38;18.73;;;8.65;;
79616;SDS011;69097;52.132;5.422;2024-02-28T05:38:04;18.10;;;8.73;;
79616;SDS011;69097;52.132;5.422;2024-02-28T05:40:31;20.38;;;8.68;;
79616;SDS011;69097;52.132;5.422;2024-02-28T05:42:57;19.38;;;9.13;;
79616;SDS011;69097;52.132;5.422;2024-02-28T05:45:24;21.10;;;8.73;;
79616;SDS011;69097;52.132;5.422;2024-02-28T05:47:50;18.15;;;8.82;;
79616;SDS011;69097;52.132;5.422;2024-02-28T05:50:17;19.65;;;8.82;;
79616;SDS011;69097;52.132;5.422;2024-02-28T05:52:43;16.45;;;8.32;;
79616;SDS011;69097;52.132;5.422;2024-02-28T05:55:10;16.60;;;8.77;;
79616;SDS011;69097;52.132;5.422;2024-02-28T05:57:37;17.98;;;9.10;;
79616;SDS011;69097;52.132;5.422;2024-02-28T06:00:04;16.70;;;8.35;;
79616;SDS011;69097;52.132;5.422;2024-02-28T06:02:36;18.33;;;8.82;;
79616;SDS011;69097;52.132;5.422;2024-02-28T06:05:03;17.65;;;9.13;;
79616;SDS011;69097;52.132;5.422;2024-02-28T06:07:30;20.80;;;9.63;;
79616;SDS011;69097;52.132;5.422;2024-02-28T06:09:57;19.38;;;9.57;;
79616;SDS011;69097;52.132;5.422;2024-02-28T06:12:23;22.02;;;9.60;;
79616;SDS011;69097;52.132;5.422;2024-02-28T06:14:50;22.23;;;11.70;;
79616;SDS011;69097;52.132;5.422;2024-02-28T06:17:16;18.73;;;8.60;;
79616;SDS011;69097;52.132;5.422;2024-02-28T06:19:43;18.67;;;9.05;;
79616;SDS011;69097;52.132;5.422;2024-02-28T06:22:09;20.23;;;9.63;;
79616;SDS011;69097;52.132;5.422;2024-02-28T06:24:36;16.88;;;8.55;;
79616;SDS011;69097;52.132;5.422;2024-02-28T06:27:02;17.38;;;8.95;;
79616;SDS011;69097;52.132;5.422;2024-02-28T06:29:30;15.77;;;8.75;;
79616;SDS011;69097;52.132;5.422;2024-02-28T06:31:57;18.20;;;9.82;;
79616;SDS011;69097;52.132;5.422;2024-02-28T06:34:23;21.73;;;9.32;;
79616;SDS011;69097;52.132;5.422;2024-02-28T06:36:50;16.77;;;9.55;;
79616;SDS011;69097;52.132;5.422;2024-02-28T06:39:17;20.45;;;9.10;;
79616;SDS011;69097;52.132;5.422;2024-02-28T06:41:43;17.58;;;9.02;;
79616;SDS011;69097;52.132;5.422;2024-02-28T06:44:10;18.25;;;9.75;;
79616;SDS011;69097;52.132;5.422;2024-02-28T06:46:37;16.80;;;9.75;;
79616;SDS011;69097;52.132;5.422;2024-02-28T06:49:04;20.70;;;11.18;;
79616;SDS011;69097;52.132;5.422;2024-02-28T06:51:31;18.40;;;9.90;;
79616;SDS011;69097;52.132;5.422;2024-02-28T06:53:57;17.33;;;8.73;;
79616;SDS011;69097;52.132;5.422;2024-02-28T06:56:23;20.20;;;11.95;;
79616;SDS011;69097;52.132;5.422;2024-02-28T06:58:50;17.88;;;9.35;;
79616;SDS011;69097;52.132;5.422;2024-02-28T07:01:17;20.08;;;9.50;;
79616;SDS011;69097;52.132;5.422;2024-02-28T07:03:44;20.80;;;9.43;;
79616;SDS011;69097;52.132;5.422;2024-02-28T07:06:11;19.15;;;9.85;;
79616;SDS011;69097;52.132;5.422;2024-02-28T07:08:37;23.33;;;9.48;;
79616;SDS011;69097;52.132;5.422;2024-02-28T07:11:04;17.50;;;9.68;;
79616;SDS011;69097;52.132;5.422;2024-02-28T07:13:30;20.10;;;10.00;;
79616;SDS011;69097;52.132;5.422;2024-02-28T07:15:57;18.02;;;9.73;;
79616;SDS011;69097;52.132;5.422;2024-02-28T07:18:24;33.53;;;11.40;;
79616;SDS011;69097;52.132;5.422;2024-02-28T07:20:55;17.23;;;9.10;;
79616;SDS011;69097;52.132;5.422;2024-02-28T07:23:21;16.83;;;8.75;;
79616;SDS011;69097;52.132;5.422;2024-02-28T07:25:48;17.20;;;9.93;;
79616;SDS011;69097;52.132;5.422;2024-02-28T07:28:14;20.48;;;10.15;;
79616;SDS011;69097;52.132;5.422;2024-02-28T07:30:41;20.05;;;9.93;;
79616;SDS011;69097;52.132;5.422;2024-02-28T07:35:48;16.33;;;8.48;;
79616;SDS011;69097;52.132;5.422;2024-02-28T07:38:16;18.85;;;9.30;;
79616;SDS011;69097;52.132;5.422;2024-02-28T07:40:47;16.15;;;9.10;;
79616;SDS011;69097;52.132;5.422;2024-02-28T07:43:14;18.33;;;9.38;;
79616;SDS011;69097;52.132;5.422;2024-02-28T07:45:40;19.40;;;9.80;;
79616;SDS011;69097;52.132;5.422;2024-02-28T07:48:07;18.33;;;9.38;;
79616;SDS011;69097;52.132;5.422;2024-02-28T07:50:34;19.83;;;11.35;;
79616;SDS011;69097;52.132;5.422;2024-02-28T07:53:00;17.35;;;10.15;;
79616;SDS011;69097;52.132;5.422;2024-02-28T07:55:27;21.65;;;10.70;;
79616;SDS011;69097;52.132;5.422;2024-02-28T07:57:53;20.40;;;10.82;;
79616;SDS011;69097;52.132;5.422;2024-02-28T08:00:20;17.98;;;10.60;;
79616;SDS011;69097;52.132;5.422;2024-02-28T08:02:47;19.00;;;9.88;;
79616;SDS011;69097;52.132;5.422;2024-02-28T08:05:13;17.35;;;9.82;;
79616;SDS011;69097;52.132;5.422;2024-02-28T08:07:41;16.77;;;10.20;;
79616;SDS011;69097;52.132;5.422;2024-02-28T08:10:08;18.25;;;9.65;;
79616;SDS011;69097;52.132;5.422;2024-02-28T08:12:36;18.85;;;10.32;;
79616;SDS011;69097;52.132;5.422;2024-02-28T08:15:03;21.20;;;10.93;;
79616;SDS011;69097;52.132;5.422;2024-02-28T08:17:31;18.42;;;9.68;;
79616;SDS011;69097;52.132;5.422;2024-02-28T08:19:58;19.27;;;9.93;;
79616;SDS011;69097;52.132;5.422;2024-02-28T08:22:24;18.42;;;9.13;;
79616;SDS011;69097;52.132;5.422;2024-02-28T08:24:51;17.33;;;10.43;;
79616;SDS011;69097;52.132;5.422;2024-02-28T08:27:18;20.00;;;10.57;;
79616;SDS011;69097;52.132;5.422;2024-02-28T08:29:45;17.63;;;10.00;;
79616;SDS011;69097;52.132;5.422;2024-02-28T08:32:12;17.63;;;10.00;;
79616;SDS011;69097;52.132;5.422;2024-02-28T08:34:42;18.33;;;9.82;;
79616;SDS011;69097;52.132;5.422;2024-02-28T08:37:10;18.45;;;9.88;;
79616;SDS011;69097;52.132;5.422;2024-02-28T08:39:36;20.00;;;10.30;;
79616;SDS011;69097;52.132;5.422;2024-02-28T08:42:03;18.83;;;10.07;;
79616;SDS011;69097;52.132;5.422;2024-02-28T08:44:30;19.05;;;9.48;;
79616;SDS011;69097;52.132;5.422;2024-02-28T08:46:57;19.95;;;11.70;;
79616;SDS011;69097;52.132;5.422;2024-02-28T08:49:23;19.05;;;11.93;;
79616;SDS011;69097;52.132;5.422;2024-02-28T08:51:50;19.55;;;11.30;;
79616;SDS011;69097;52.132;5.422;2024-02-28T08:54:16;16.88;;;10.48;;
79616;SDS011;69097;52.132;5.422;2024-02-28T08:56:43;18.17;;;10.68;;
79616;SDS011;69097;52.132;5.422;2024-02-28T08:59:21;21.60;;;11.38;;
79616;SDS011;69097;52.132;5.422;2024-02-28T09:01:48;19.02;;;11.65;;
79616;SDS011;69097;52.132;5.422;2024-02-28T09:04:15;28.42;;;12.45;;
79616;SDS011;69097;52.132;5.422;2024-02-28T09:06:42;20.88;;;11.93;;
79616;SDS011;69097;52.132;5.422;2024-02-28T09:09:08;21.55;;;11.75;;
79616;SDS011;69097;52.132;5.422;2024-02-28T09:11:35;24.63;;;12.45;;
79616;SDS011;69097;52.132;5.422;2024-02-28T09:14:01;23.15;;;12.18;;
79616;SDS011;69097;52.132;5.422;2024-02-28T09:16:28;20.98;;;12.00;;
79616;SDS011;69097;52.132;5.422;2024-02-28T09:18:55;23.10;;;12.20;;
79616;SDS011;69097;52.132;5.422;2024-02-28T09:21:21;24.90;;;15.07;;
79616;SDS011;69097;52.132;5.422;2024-02-28T09:23:48;21.73;;;12.27;;
79616;SDS011;69097;52.132;5.422;2024-02-28T09:26:14;26.75;;;12.65;;
79616;SDS011;69097;52.132;5.422;2024-02-28T09:28:41;24.45;;;14.57;;
79616;SDS011;69097;52.132;5.422;2024-02-28T09:31:07;23.55;;;13.30;;
79616;SDS011;69097;52.132;5.422;2024-02-28T09:33:35;24.92;;;13.13;;
79616;SDS011;69097;52.132;5.422;2024-02-28T09:36:02;24.05;;;13.63;;
79616;SDS011;69097;52.132;5.422;2024-02-28T09:38:29;27.05;;;13.60;;
79616;SDS011;69097;52.132;5.422;2024-02-28T09:40:56;26.08;;;14.40;;
79616;SDS011;69097;52.132;5.422;2024-02-28T09:43:29;25.73;;;13.68;;
79616;SDS011;69097;52.132;5.422;2024-02-28T09:45:59;30.83;;;13.55;;
79616;SDS011;69097;52.132;5.422;2024-02-28T09:48:31;23.77;;;13.45;;
79616;SDS011;69097;52.132;5.422;2024-02-28T09:50:58;22.92;;;13.23;;
79616;SDS011;69097;52.132;5.422;2024-02-28T09:53:26;24.63;;;13.35;;
79616;SDS011;69097;52.132;5.422;2024-02-28T09:55:53;25.25;;;13.50;;
79616;SDS011;69097;52.132;5.422;2024-02-28T09:58:19;26.50;;;14.00;;
79616;SDS011;69097;52.132;5.422;2024-02-28T10:00:47;22.55;;;13.00;;
79616;SDS011;69097;52.132;5.422;2024-02-28T10:03:17;23.88;;;12.07;;
79616;SDS011;69097;52.132;5.422;2024-02-28T10:05:46;26.05;;;12.40;;
79616;SDS011;69097;52.132;5.422;2024-02-28T10:10:49;21.58;;;12.30;;
79616;SDS011;69097;52.132;5.422;2024-02-28T10:13:20;23.58;;;12.35;;
79616;SDS011;69097;52.132;5.422;2024-02-28T10:15:50;30.05;;;16.48;;
79616;SDS011;69097;52.132;5.422;2024-02-28T10:18:16;31.77;;;14.23;;
79616;SDS011;69097;52.132;5.422;2024-02-28T10:20:43;25.67;;;13.45;;
79616;SDS011;69097;52.132;5.422;2024-02-28T10:23:09;25.27;;;12.70;;
79616;SDS011;69097;52.132;5.422;2024-02-28T10:25:45;26.02;;;12.93;;
79616;SDS011;69097;52.132;5.422;2024-02-28T10:28:22;28.45;;;13.40;;
79616;SDS011;69097;52.132;5.422;2024-02-28T10:30:49;25.17;;;13.63;;
79616;SDS011;69097;52.132;5.422;2024-02-28T10:33:15;23.38;;;12.85;;
79616;SDS011;69097;52.132;5.422;2024-02-28T10:35:42;24.08;;;13.23;;
79616;SDS011;69097;52.132;5.422;2024-02-28T10:38:13;24.48;;;12.90;;
79616;SDS011;69097;52.132;5.422;2024-02-28T10:40:40;25.65;;;15.20;;
79616;SDS011;69097;52.132;5.422;2024-02-28T10:43:10;26.25;;;13.50;;
79616;SDS011;69097;52.132;5.422;2024-02-28T10:45:37;22.85;;;12.63;;
79616;SDS011;69097;52.132;5.422;2024-02-28T10:48:25;21.98;;;11.77;;
79616;SDS011;69097;52.132;5.422;2024-02-28T10:50:52;28.23;;;12.48;;
79616;SDS011;69097;52.132;5.422;2024-02-28T10:53:22;23.27;;;13.13;;
79616;SDS011;69097;52.132;5.422;2024-02-28T10:55:52;26.35;;;13.65;;
79616;SDS011;69097;52.132;5.422;2024-02-28T10:58:22;25.88;;;14.23;;
79616;SDS011;69097;52.132;5.422;2024-02-28T11:00:50;24.13;;;14.05;;
79616;SDS011;69097;52.132;5.422;2024-02-28T11:03:19;27.55;;;14.30;;
79616;SDS011;69097;52.132;5.422;2024-02-28T11:05:48;25.63;;;13.77;;
79616;SDS011;69097;52.132;5.422;2024-02-28T11:08:24;25.65;;;14.23;;
79616;SDS011;69097;52.132;5.422;2024-02-28T11:10:57;29.63;;;14.95;;
79616;SDS011;69097;52.132;5.422;2024-02-28T11:13:26;26.77;;;14.93;;
79616;SDS011;69097;52.132;5.422;2024-02-28T11:15:53;31.27;;;14.52;;
79616;SDS011;69097;52.132;5.422;2024-02-28T11:18:23;26.90;;;14.63;;
79616;SDS011;69097;52.132;5.422;2024-02-28T11:20:50;28.55;;;14.98;;
79616;SDS011;69097;52.132;5.422;2024-02-28T11:23:17;25.30;;;14.15;;
79616;SDS011;69097;52.132;5.422;2024-02-28T11:25:44;28.40;;;13.98;;
79616;SDS011;69097;52.132;5.422;2024-02-28T11:28:10;25.38;;;14.20;;
79616;SDS011;69097;52.132;5.422;2024-02-28T11:30:37;26.67;;;13.80;;
79616;SDS011;69097;52.132;5.422;2024-02-28T11:33:03;25.92;;;14.20;;
79616;SDS011;69097;52.132;5.422;2024-02-28T11:35:32;24.38;;;13.85;;
79616;SDS011;69097;52.132;5.422;2024-02-28T11:37:58;27.52;;;14.25;;
79616;SDS011;69097;52.132;5.422;2024-02-28T11:40:25;24.60;;;14.15;;
79616;SDS011;69097;52.132;5.422;2024-02-28T11:42:52;26.45;;;14.73;;
79616;SDS011;69097;52.132;5.422;2024-02-28T11:45:20;26.33;;;12.60;;
79616;SDS011;69097;52.132;5.422;2024-02-28T11:47:47;26.45;;;13.07;;
79616;SDS011;69097;52.132;5.422;2024-02-28T11:50:15;28.63;;;13.25;;
79616;SDS011;69097;52.132;5.422;2024-02-28T11:52:45;24.25;;;12.95;;
79616;SDS011;69097;52.132;5.422;2024-02-28T11:55:12;25.75;;;12.57;;
79616;SDS011;69097;52.132;5.422;2024-02-28T11:57:39;23.33;;;12.30;;
79616;SDS011;69097;52.132;5.422;2024-02-28T12:00:07;25.60;;;12.68;;
79616;SDS011;69097;52.132;5.422;2024-02-28T12:02:40;23.63;;;12.40;;
79616;SDS011;69097;52.132;5.422;2024-02-28T12:05:07;25.05;;;13.93;;
79616;SDS011;69097;52.132;5.422;2024-02-28T12:07:35;26.13;;;13.18;;
79616;SDS011;69097;52.132;5.422;2024-02-28T12:10:02;25.98;;;13.05;;
79616;SDS011;69097;52.132;5.422;2024-02-28T12:15:00;26.25;;;12.90;;
79616;SDS011;69097;52.132;5.422;2024-02-28T12:17:29;25.50;;;13.18;;
79616;SDS011;69097;52.132;5.422;2024-02-28T12:19:58;24.95;;;12.90;;
79616;SDS011;69097;52.132;5.422;2024-02-28T12:22:25;30.10;;;13.25;;
79616;SDS011;69097;52.132;5.422;2024-02-28T12:24:52;29.02;;;13.77;;
79616;SDS011;69097;52.132;5.422;2024-02-28T12:27:18;29.73;;;13.23;;
79616;SDS011;69097;52.132;5.422;2024-02-28T12:29:45;25.55;;;13.02;;
79616;SDS011;69097;52.132;5.422;2024-02-28T12:32:11;29.58;;;12.68;;
79616;SDS011;69097;52.132;5.422;2024-02-28T12:34:38;31.70;;;12.82;;
79616;SDS011;69097;52.132;5.422;2024-02-28T12:37:05;25.83;;;14.68;;
79616;SDS011;69097;52.132;5.422;2024-02-28T12:39:31;27.30;;;13.02;;
79616;SDS011;69097;52.132;5.422;2024-02-28T12:42:00;29.60;;;14.10;;
79616;SDS011;69097;52.132;5.422;2024-02-28T12:44:27;30.42;;;14.65;;
79616;SDS011;69097;52.132;5.422;2024-02-28T12:46:54;25.48;;;12.30;;
79616;SDS011;69097;52.132;5.422;2024-02-28T12:49:20;24.52;;;11.50;;
79616;SDS011;69097;52.132;5.422;2024-02-28T12:51:47;23.52;;;11.48;;
79616;SDS011;69097;52.132;5.422;2024-02-28T12:54:15;27.42;;;12.95;;
79616;SDS011;69097;52.132;5.422;2024-02-28T12:56:42;23.95;;;12.15;;
79616;SDS011;69097;52.132;5.422;2024-02-28T12:59:12;23.17;;;13.68;;
79616;SDS011;69097;52.132;5.422;2024-02-28T13:01:39;22.65;;;11.90;;
79616;SDS011;69097;52.132;5.422;2024-02-28T13:04:06;27.67;;;11.65;;
79616;SDS011;69097;52.132;5.422;2024-02-28T13:06:33;23.40;;;11.80;;
79616;SDS011;69097;52.132;5.422;2024-02-28T13:08:59;21.48;;;10.85;;
79616;SDS011;69097;52.132;5.422;2024-02-28T13:11:26;22.38;;;11.27;;
79616;SDS011;69097;52.132;5.422;2024-02-28T13:13:52;22.35;;;11.00;;
79616;SDS011;69097;52.132;5.422;2024-02-28T13:16:19;27.05;;;11.68;;
79616;SDS011;69097;52.132;5.422;2024-02-28T13:18:47;21.33;;;11.25;;
79616;SDS011;69097;52.132;5.422;2024-02-28T13:21:14;22.13;;;11.30;;
79616;SDS011;69097;52.132;5.422;2024-02-28T13:23:41;28.00;;;13.80;;
79616;SDS011;69097;52.132;5.422;2024-02-28T13:26:07;20.95;;;12.02;;
79616;SDS011;69097;52.132;5.422;2024-02-28T13:28:34;23.80;;;12.25;;
79616;SDS011;69097;52.132;5.422;2024-02-28T13:31:02;24.80;;;11.23;;
79616;SDS011;69097;52.132;5.422;2024-02-28T13:33:32;22.48;;;11.77;;
79616;SDS011;69097;52.132;5.422;2024-02-28T13:35:59;21.15;;;11.55;;
79616;SDS011;69097;52.132;5.422;2024-02-28T13:38:25;20.00;;;11.85;;
79616;SDS011;69097;52.132;5.422;2024-02-28T13:40:52;28.58;;;12.45;;
79616;SDS011;69097;52.132;5.422;2024-02-28T13:43:18;20.80;;;11.68;;
79616;SDS011;69097;52.132;5.422;2024-02-28T13:45:48;21.67;;;11.55;;
79616;SDS011;69097;52.132;5.422;2024-02-28T13:48:16;24.05;;;12.95;;
79616;SDS011;69097;52.132;5.422;2024-02-28T13:50:53;22.10;;;13.95;;
79616;SDS011;69097;52.132;5.422;2024-02-28T13:53:20;25.20;;;12.52;;
79616;SDS011;69097;52.132;5.422;2024-02-28T13:55:46;19.70;;;11.93;;
79616;SDS011;69097;52.132;5.422;2024-02-28T13:58:13;24.48;;;12.25;;
79616;SDS011;69097;52.132;5.422;2024-02-28T14:00:44;21.45;;;11.63;;
79616;SDS011;69097;52.132;5.422;2024-02-28T14:03:12;20.77;;;11.32;;
79616;SDS011;69097;52.132;5.422;2024-02-28T14:05:39;21.27;;;11.82;;
79616;SDS011;69097;52.132;5.422;2024-02-28T14:08:05;21.42;;;11.35;;
79616;SDS011;69097;52.132;5.422;2024-02-28T14:10:38;21.00;;;12.10;;
79616;SDS011;69097;52.132;5.422;2024-02-28T14:13:06;20.63;;;12.63;;
79616;SDS011;69097;52.132;5.422;2024-02-28T14:15:32;22.08;;;12.27;;
79616;SDS011;69097;52.132;5.422;2024-02-28T14:17:59;24.38;;;12.35;;
79616;SDS011;69097;52.132;5.422;2024-02-28T14:20:25;21.95;;;12.60;;
79616;SDS011;69097;52.132;5.422;2024-02-28T14:22:52;22.55;;;11.80;;
79616;SDS011;69097;52.132;5.422;2024-02-28T14:25:18;20.65;;;11.80;;
79616;SDS011;69097;52.132;5.422;2024-02-28T14:27:47;22.30;;;11.95;;
79616;SDS011;69097;52.132;5.422;2024-02-28T14:30:14;24.40;;;11.77;;
79616;SDS011;69097;52.132;5.422;2024-02-28T14:32:41;24.23;;;11.90;;
79616;SDS011;69097;52.132;5.422;2024-02-28T14:35:09;20.55;;;10.98;;